Terminal Aerodrome Forecast
Issued by NWS Mt. Holly, NJ

Home | Current Version | Previous Version | Text Only | Print | Product List | Glossary On
Versions: 1 2 3 4 5 6 7 8 9 10 11 12 13 14 15 16
000
FTUS41 KPHI 200100 AAA
TAFACY
TAF AMD
KACY 200123Z 2001/2024 08008KT P6SM SCT025
      TEMPO 2002/2006 BKN025
     FM200600 11005KT P6SM OVC015
     FM201600 14010KT P6SM VCSH OVC025=

USA.gov is the U.S. government's official web portal to all federal, state and local government web resources and services.